createdAt,value
2018-02-19T00:00:19.614Z,2.64
2018-02-19T00:01:19.749Z,2.65
2018-02-19T00:02:19.627Z,2.64
2018-02-19T00:03:19.630Z,2.64
2018-02-19T00:04:19.646Z,2.64
2018-02-19T00:05:19.471Z,2.65
2018-02-19T00:06:19.664Z,2.62
2018-02-19T00:07:19.776Z,2.65
2018-02-19T00:08:19.670Z,2.65
2018-02-19T00:09:19.702Z,2.64
2018-02-19T00:10:19.514Z,2.66
2018-02-19T00:11:19.661Z,2.65
2018-02-19T00:12:19.699Z,2.64
2018-02-19T00:13:19.677Z,2.61
2018-02-19T00:14:19.688Z,2.64
2018-02-19T00:15:19.683Z,2.59
2018-02-19T00:16:19.531Z,2.58
2018-02-19T00:17:19.545Z,2.61
2018-02-19T00:18:19.531Z,2.61
2018-02-19T00:19:19.536Z,2.61
2018-02-19T00:20:19.554Z,2.61
2018-02-19T00:21:19.554Z,2.59
2018-02-19T00:22:19.569Z,2.64
2018-02-19T00:23:19.558Z,2.64
2018-02-19T00:24:19.556Z,2.61
2018-02-19T00:25:19.737Z,2.64
2018-02-19T00:26:19.560Z,2.64
2018-02-19T00:27:19.596Z,2.62
2018-02-19T00:28:19.577Z,2.66
2018-02-19T00:29:19.580Z,2.64
2018-02-19T00:30:19.729Z,2.64
2018-02-19T00:31:19.747Z,2.64
2018-02-19T00:32:19.744Z,2.62
2018-02-19T00:33:19.744Z,2.61
2018-02-19T00:34:19.651Z,2.61
2018-02-19T00:35:19.604Z,2.58
2018-02-19T00:36:19.767Z,2.58
2018-02-19T00:37:19.767Z,2.58
2018-02-19T00:38:19.773Z,2.55
2018-02-19T00:39:19.630Z,2.56
2018-02-19T00:40:19.774Z,2.54
2018-02-19T00:41:19.774Z,2.54
2018-02-19T00:42:19.787Z,2.52
2018-02-19T00:43:19.780Z,2.51
2018-02-19T00:44:19.786Z,2.51
2018-02-19T00:45:19.808Z,2.54
2018-02-19T00:46:19.797Z,2.54
2018-02-19T00:47:19.796Z,2.54
2018-02-19T00:48:19.643Z,2.54
2018-02-19T00:49:19.803Z,2.54
2018-02-19T00:50:19.810Z,2.56
2018-02-19T00:51:19.808Z,2.56
2018-02-19T00:52:19.813Z,2.56
2018-02-19T00:53:19.807Z,2.59
2018-02-19T00:54:19.816Z,2.56
2018-02-19T00:55:19.832Z,2.55
2018-02-19T00:56:19.834Z,2.56
2018-02-19T00:57:19.826Z,2.56
2018-02-19T00:58:19.829Z,2.58
2018-02-19T00:59:19.836Z,2.58
2018-02-19T01:00:19.701Z,2.55
2018-02-19T01:01:19.843Z,2.56
2018-02-19T01:02:19.842Z,2.55
2018-02-19T01:03:19.834Z,2.52
2018-02-19T01:04:19.848Z,2.52
2018-02-19T01:05:19.879Z,2.49
2018-02-19T01:06:19.858Z,2.51
2018-02-19T01:07:19.850Z,2.48
2018-02-19T01:08:19.856Z,2.45
2018-02-19T01:09:19.698Z,2.43
2018-02-19T01:10:19.855Z,2.43
2018-02-19T01:11:19.711Z,2.43
2018-02-19T01:12:19.871Z,2.38
2018-02-19T01:13:19.901Z,2.4
2018-02-19T01:14:19.874Z,2.38
2018-02-19T01:15:19.880Z,2.41
2018-02-19T01:16:19.913Z,2.4
2018-02-19T01:17:19.744Z,2.44
2018-02-19T01:18:19.907Z,2.41
2018-02-19T01:19:19.903Z,2.4
2018-02-19T01:20:19.757Z,2.41
2018-02-19T01:21:19.768Z,2.38
2018-02-19T01:22:19.752Z,2.38
2018-02-19T01:23:19.920Z,2.4
2018-02-19T01:24:19.918Z,2.4
2018-02-19T01:25:20.237Z,2.43
2018-02-19T01:26:19.925Z,2.41
2018-02-19T01:27:19.925Z,2.43
2018-02-19T01:28:19.930Z,2.44
2018-02-19T01:29:19.937Z,2.44
2018-02-19T01:30:19.954Z,2.41
2018-02-19T01:31:19.932Z,2.43
2018-02-19T01:32:19.946Z,2.44
2018-02-19T01:33:19.990Z,2.44
2018-02-19T01:34:19.954Z,2.43
2018-02-19T01:35:20.099Z,2.43
2018-02-19T01:36:19.962Z,2.44
2018-02-19T01:37:19.808Z,2.45
2018-02-19T01:38:19.971Z,2.44
2018-02-19T01:39:19.820Z,2.43
2018-02-19T01:40:19.990Z,2.44
2018-02-19T01:41:19.977Z,2.43
2018-02-19T01:42:19.816Z,2.41
2018-02-19T01:43:19.994Z,2.43
2018-02-19T01:44:19.819Z,2.43
2018-02-19T01:45:19.989Z,2.44
2018-02-19T01:46:19.975Z,2.43
2018-02-19T01:47:19.978Z,2.38
2018-02-19T01:48:19.969Z,2.38
2018-02-19T01:49:19.975Z,2.43
2018-02-19T01:50:19.979Z,2.43
2018-02-19T01:51:19.984Z,2.43
2018-02-19T01:52:19.828Z,2.4
2018-02-19T01:53:19.838Z,2.41
2018-02-19T01:54:19.864Z,2.41
2018-02-19T01:55:19.848Z,2.41
2018-02-19T01:56:19.869Z,2.41
2018-02-19T01:57:19.838Z,2.41
2018-02-19T01:58:20.017Z,2.4
2018-02-19T01:59:19.996Z,2.41
2018-02-19T02:00:19.999Z,2.43
2018-02-19T02:01:20.029Z,2.41
2018-02-19T02:02:19.998Z,2.41
2018-02-19T02:03:20.009Z,2.38
2018-02-19T02:04:20.016Z,2.4
2018-02-19T02:05:20.018Z,2.34
2018-02-19T02:06:20.128Z,2.33
2018-02-19T02:07:19.862Z,2.31
2018-02-19T02:08:20.034Z,2.33
2018-02-19T02:09:19.881Z,2.3
2018-02-19T02:10:20.044Z,2.3
2018-02-19T02:11:19.913Z,2.27
2018-02-19T02:12:20.061Z,2.28
2018-02-19T02:13:20.063Z,2.27
2018-02-19T02:14:20.081Z,2.27
2018-02-19T02:15:20.060Z,2.26
2018-02-19T02:16:20.085Z,2.27
2018-02-19T02:17:20.072Z,2.2
2018-02-19T02:18:20.069Z,2.2
2018-02-19T02:19:20.067Z,2.18
2018-02-19T02:20:19.918Z,2.17
2018-02-19T02:21:20.091Z,2.14
2018-02-19T02:22:20.086Z,2.16
2018-02-19T02:23:20.101Z,2.17
2018-02-19T02:24:20.092Z,2.16
2018-02-19T02:25:20.092Z,2.16
2018-02-19T02:26:20.117Z,2.16
2018-02-19T02:27:20.087Z,2.13
2018-02-19T02:28:20.093Z,2.14
2018-02-19T02:29:20.105Z,2.16
2018-02-19T02:30:20.108Z,2.16
2018-02-19T02:31:20.333Z,2.14
2018-02-19T02:32:20.122Z,2.18
2018-02-19T02:33:19.958Z,2.21
2018-02-19T02:34:20.114Z,2.17
2018-02-19T02:35:19.967Z,2.2
2018-02-19T02:36:20.150Z,2.21
2018-02-19T02:37:19.959Z,2.2
2018-02-19T02:38:20.129Z,2.18
2018-02-19T02:39:20.157Z,2.18
2018-02-19T02:40:19.970Z,2.21
2018-02-19T02:41:20.257Z,2.21
2018-02-19T02:42:19.977Z,2.21
2018-02-19T02:43:19.979Z,2.22
2018-02-19T02:44:19.994Z,2.17
2018-02-19T02:45:20.005Z,2.16
2018-02-19T02:46:20.246Z,2.18
2018-02-19T02:47:20.019Z,2.18
2018-02-19T02:48:19.995Z,2.21
2018-02-19T02:49:20.076Z,2.18
2018-02-19T02:50:20.042Z,2.14
2018-02-19T02:51:20.018Z,2.14
2018-02-19T02:52:20.020Z,2.16
2018-02-19T02:53:20.030Z,2.14
2018-02-19T02:54:20.024Z,2.14
2018-02-19T02:55:20.045Z,2.1
2018-02-19T02:56:20.037Z,2.11
2018-02-19T02:57:20.025Z,2.11
2018-02-19T02:58:20.036Z,2.1
2018-02-19T02:59:20.049Z,2.1
2018-02-19T03:00:20.041Z,2.09
2018-02-19T03:01:20.043Z,2.1
2018-02-19T03:02:20.083Z,2.06
2018-02-19T03:03:20.121Z,2.01
2018-02-19T03:04:20.050Z,2.01
2018-02-19T03:05:20.081Z,1.99
2018-02-19T03:06:20.086Z,2.03
2018-02-19T03:07:20.052Z,1.97
2018-02-19T03:08:20.056Z,1.97
2018-02-19T03:09:20.217Z,1.99
2018-02-19T03:10:20.225Z,1.93
2018-02-19T03:11:20.232Z,1.89
2018-02-19T03:12:20.274Z,1.9
2018-02-19T03:13:20.236Z,1.89
2018-02-19T03:14:20.072Z,1.87
2018-02-19T03:15:20.083Z,1.86
2018-02-19T03:16:20.078Z,1.85
2018-02-19T03:17:20.133Z,1.79
2018-02-19T03:18:20.230Z,1.81
2018-02-19T03:19:20.245Z,1.81
2018-02-19T03:20:20.089Z,1.76
2018-02-19T03:21:20.261Z,1.76
2018-02-19T03:22:20.096Z,1.78
2018-02-19T03:23:20.265Z,1.78
2018-02-19T03:24:20.251Z,1.73
2018-02-19T03:25:20.246Z,1.72
2018-02-19T03:26:20.101Z,1.71
2018-02-19T03:27:20.105Z,1.73
2018-02-19T03:28:20.113Z,1.69
2018-02-19T03:29:20.287Z,1.66
2018-02-19T03:30:20.125Z,1.64
2018-02-19T03:31:20.147Z,1.61
2018-02-19T03:32:20.118Z,1.55
2018-02-19T03:33:20.122Z,1.55
2018-02-19T03:34:20.139Z,1.53
2018-02-19T03:35:20.143Z,1.55
2018-02-19T03:36:20.161Z,1.48
2018-02-19T03:37:20.137Z,1.48
2018-02-19T03:38:20.156Z,1.43
2018-02-19T03:39:20.139Z,1.33
2018-02-19T03:40:20.156Z,1.36
2018-02-19T03:41:20.173Z,1.37
2018-02-19T03:42:20.306Z,1.36
2018-02-19T03:43:20.148Z,1.34
2018-02-19T03:44:20.145Z,1.31
2018-02-19T03:45:20.165Z,1.26
2018-02-19T03:46:20.324Z,1.27
2018-02-19T03:47:20.178Z,1.24
2018-02-19T03:48:20.170Z,1.2
2018-02-19T03:49:20.160Z,1.22
2018-02-19T03:50:20.162Z,1.19
2018-02-19T03:51:20.161Z,1.17
2018-02-19T03:52:20.325Z,1.13
2018-02-19T03:53:20.156Z,1.11
2018-02-19T03:54:20.159Z,1.09
2018-02-19T03:55:20.171Z,1.06
2018-02-19T03:56:20.346Z,1.03
2018-02-19T03:57:20.202Z,1.02
2018-02-19T03:58:20.194Z,0.99
2018-02-19T03:59:20.185Z,0.98
2018-02-19T04:00:20.185Z,0.98
2018-02-19T04:01:20.194Z,0.93
2018-02-19T04:02:20.238Z,0.96
2018-02-19T04:03:20.206Z,0.92
2018-02-19T04:04:20.202Z,0.93
2018-02-19T04:05:20.228Z,0.98
2018-02-19T04:06:20.215Z,0.98
2018-02-19T04:07:20.380Z,0.99
2018-02-19T04:08:20.244Z,1.06
2018-02-19T04:09:20.228Z,1.06
2018-02-19T04:10:20.243Z,1
2018-02-19T04:11:20.223Z,0.98
2018-02-19T04:12:20.230Z,1
2018-02-19T04:13:20.289Z,1
2018-02-19T04:14:20.243Z,0.96
2018-02-19T04:15:20.264Z,0.92
2018-02-19T04:16:20.259Z,0.91
2018-02-19T04:17:20.240Z,0.91
2018-02-19T04:18:20.255Z,0.86
2018-02-19T04:19:20.268Z,0.89
2018-02-19T04:20:20.240Z,0.85
2018-02-19T04:21:20.414Z,0.82
2018-02-19T04:22:20.403Z,0.83
2018-02-19T04:23:20.404Z,0.83
2018-02-19T04:24:20.433Z,0.83
2018-02-19T04:25:20.417Z,0.82
2018-02-19T04:26:20.412Z,0.78
2018-02-19T04:27:20.285Z,0.78
2018-02-19T04:28:20.428Z,0.76
2018-02-19T04:29:20.279Z,0.75
2018-02-19T04:30:20.273Z,0.74
2018-02-19T04:31:20.443Z,0.76
2018-02-19T04:32:20.275Z,0.79
2018-02-19T04:33:20.282Z,0.81
2018-02-19T04:34:20.494Z,0.86
2018-02-19T04:35:20.448Z,0.82
2018-02-19T04:36:20.480Z,0.79
2018-02-19T04:37:20.479Z,0.78
2018-02-19T04:38:20.301Z,0.72
2018-02-19T04:39:20.490Z,0.72
2018-02-19T04:40:20.318Z,0.71
2018-02-19T04:41:20.487Z,0.74
2018-02-19T04:42:20.328Z,0.76
2018-02-19T04:43:20.612Z,0.71
2018-02-19T04:44:20.320Z,0.69
2018-02-19T04:45:20.485Z,0.69
2018-02-19T04:46:20.495Z,0.68
2018-02-19T04:47:20.512Z,0.68
2018-02-19T04:48:20.354Z,0.64
2018-02-19T04:49:20.499Z,0.65
2018-02-19T04:50:20.517Z,0.67
2018-02-19T04:51:20.360Z,0.64
2018-02-19T04:52:20.537Z,0.64
2018-02-19T04:53:20.344Z,0.63
2018-02-19T04:54:20.536Z,0.61
2018-02-19T04:55:20.361Z,0.6
2018-02-19T04:56:20.374Z,0.61
2018-02-19T04:57:20.394Z,0.57
2018-02-19T04:58:20.380Z,0.53
2018-02-19T04:59:20.381Z,0.53
2018-02-19T05:00:20.397Z,0.51
2018-02-19T05:01:20.378Z,0.51
2018-02-19T05:02:20.385Z,0.48
2018-02-19T05:03:20.393Z,0.5
2018-02-19T05:04:20.398Z,0.5
2018-02-19T05:05:20.392Z,0.47
2018-02-19T05:06:20.398Z,0.51
2018-02-19T05:07:20.407Z,0.47
2018-02-19T05:08:20.427Z,0.48
2018-02-19T05:09:20.410Z,0.46
2018-02-19T05:10:20.413Z,0.43
2018-02-19T05:11:20.422Z,0.44
2018-02-19T05:12:20.442Z,0.47
2018-02-19T05:13:20.454Z,0.43
2018-02-19T05:14:20.442Z,0.44
2018-02-19T05:15:20.419Z,0.46
2018-02-19T05:16:20.434Z,0.44
2018-02-19T05:17:20.442Z,0.41
2018-02-19T05:18:20.484Z,0.38
2018-02-19T05:19:20.471Z,0.4
2018-02-19T05:20:20.455Z,0.38
2018-02-19T05:21:20.444Z,0.41
2018-02-19T05:22:20.478Z,0.4
2018-02-19T05:23:20.467Z,0.38
2018-02-19T05:24:20.496Z,0.44
2018-02-19T05:25:20.485Z,0.43
2018-02-19T05:26:20.473Z,0.4
2018-02-19T05:27:20.484Z,0.43
2018-02-19T05:28:20.487Z,0.4
2018-02-19T05:29:20.490Z,0.43
2018-02-19T05:30:20.496Z,0.41
2018-02-19T05:31:20.510Z,0.37
2018-02-19T05:32:20.666Z,0.38
2018-02-19T05:33:20.780Z,0.34
2018-02-19T05:34:20.676Z,0.34
2018-02-19T05:35:20.502Z,0.33
2018-02-19T05:36:20.675Z,0.34
2018-02-19T05:37:20.672Z,0.32
2018-02-19T05:38:20.693Z,0.29
2018-02-19T05:39:20.694Z,0.3
2018-02-19T05:40:20.694Z,0.3
2018-02-19T05:41:20.517Z,0.29
2018-02-19T05:42:20.680Z,0.29
2018-02-19T05:43:20.710Z,0.26
2018-02-19T05:44:20.641Z,0.26
2018-02-19T05:45:20.686Z,0.26
2018-02-19T05:46:20.684Z,0.23
2018-02-19T05:47:20.533Z,0.26
2018-02-19T05:48:20.693Z,0.23
2018-02-19T05:49:20.561Z,0.22
2018-02-19T05:50:20.536Z,0.22
2018-02-19T05:51:20.720Z,0.23
2018-02-19T05:52:20.733Z,0.25
2018-02-19T05:53:20.717Z,0.23
2018-02-19T05:54:20.740Z,0.27
2018-02-19T05:55:20.727Z,0.32
2018-02-19T05:56:20.564Z,0.27
2018-02-19T05:57:20.568Z,0.29
2018-02-19T05:58:20.578Z,0.3
2018-02-19T05:59:20.615Z,0.29
2018-02-19T06:00:20.585Z,0.26
2018-02-19T06:01:20.576Z,0.26
2018-02-19T06:02:20.752Z,0.29
2018-02-19T06:03:20.758Z,0.27
2018-02-19T06:04:20.619Z,0.26
2018-02-19T06:05:20.596Z,0.27
2018-02-19T06:06:20.790Z,0.27
2018-02-19T06:07:20.587Z,0.3
2018-02-19T06:08:20.594Z,0.34
2018-02-19T06:09:20.876Z,0.34
2018-02-19T06:10:20.618Z,0.36
2018-02-19T06:11:20.621Z,0.36
2018-02-19T06:12:20.621Z,0.34
2018-02-19T06:13:20.628Z,0.38
2018-02-19T06:14:20.643Z,0.4
2018-02-19T06:15:20.693Z,0.36
2018-02-19T06:16:20.628Z,0.33
2018-02-19T06:17:20.626Z,0.33
2018-02-19T06:18:20.648Z,0.36
2018-02-19T06:19:20.656Z,0.36
2018-02-19T06:20:20.634Z,0.33
2018-02-19T06:21:20.634Z,0.36
2018-02-19T06:22:20.635Z,0.38
2018-02-19T06:23:20.641Z,0.41
2018-02-19T06:24:20.688Z,0.44
2018-02-19T06:25:20.817Z,0.46
2018-02-19T06:26:20.659Z,0.44
2018-02-19T06:27:20.677Z,0.44
2018-02-19T06:28:20.664Z,0.44
2018-02-19T06:29:20.696Z,0.43
2018-02-19T06:30:20.676Z,0.47
2018-02-19T06:31:20.727Z,0.46
2018-02-19T06:32:20.750Z,0.48
2018-02-19T06:33:20.673Z,0.46
2018-02-19T06:34:20.715Z,0.46
2018-02-19T06:35:20.708Z,0.46
2018-02-19T06:36:20.710Z,0.43
2018-02-19T06:37:20.700Z,0.43
2018-02-19T06:38:20.695Z,0.44
2018-02-19T06:39:20.702Z,0.47
2018-02-19T06:40:20.707Z,0.48
2018-02-19T06:41:20.720Z,0.48
2018-02-19T06:42:20.722Z,0.48
2018-02-19T06:43:20.817Z,0.48
2018-02-19T06:44:20.877Z,0.51
2018-02-19T06:45:20.885Z,0.5
2018-02-19T06:46:20.739Z,0.53
2018-02-19T06:47:20.906Z,0.55
2018-02-19T06:48:20.914Z,0.53
2018-02-19T06:49:20.748Z,0.54
2018-02-19T06:50:20.784Z,0.53
2018-02-19T06:51:20.927Z,0.53
2018-02-19T06:52:20.786Z,0.57
2018-02-19T06:53:20.972Z,0.53
2018-02-19T06:54:21.028Z,0.51
2018-02-19T06:55:20.950Z,0.53
2018-02-19T06:56:20.943Z,0.54
2018-02-19T06:57:20.783Z,0.54
2018-02-19T06:58:20.778Z,0.57
2018-02-19T06:59:20.786Z,0.57
2018-02-19T07:00:20.787Z,0.58
2018-02-19T07:01:20.834Z,0.61
2018-02-19T07:02:20.807Z,0.61
2018-02-19T07:03:20.793Z,0.58
2018-02-19T07:04:20.957Z,0.57
2018-02-19T07:05:20.816Z,0.55
2018-02-19T07:06:20.988Z,0.54
2018-02-19T07:07:20.814Z,0.55
2018-02-19T07:08:20.816Z,0.51
2018-02-19T07:09:20.980Z,0.55
2018-02-19T07:10:20.974Z,0.51
2018-02-19T07:11:20.828Z,0.51
2018-02-19T07:12:20.843Z,0.5
2018-02-19T07:13:21.019Z,0.5
2018-02-19T07:14:20.820Z,0.51
2018-02-19T07:15:21.003Z,0.51
2018-02-19T07:16:20.849Z,0.53
2018-02-19T07:17:21.005Z,0.48
2018-02-19T07:18:20.879Z,0.48
2018-02-19T07:19:20.854Z,0.5
2018-02-19T07:20:20.955Z,0.51
2018-02-19T07:21:20.853Z,0.5
2018-02-19T07:22:20.853Z,0.5
2018-02-19T07:23:21.036Z,0.51
2018-02-19T07:24:20.854Z,0.5
2018-02-19T07:25:20.870Z,0.54
2018-02-19T07:26:20.886Z,0.57
2018-02-19T07:27:21.045Z,0.61
2018-02-19T07:28:20.896Z,0.6
2018-02-19T07:29:20.884Z,0.58
2018-02-19T07:30:20.889Z,0.57
2018-02-19T07:31:20.898Z,0.58
2018-02-19T07:32:20.890Z,0.58
2018-02-19T07:33:20.878Z,0.57
2018-02-19T07:34:20.876Z,0.54
2018-02-19T07:35:20.875Z,0.54
2018-02-19T07:36:20.912Z,0.54
2018-02-19T07:37:20.901Z,0.51
2018-02-19T07:38:20.881Z,0.55
2018-02-19T07:39:21.187Z,0.55
2018-02-19T07:40:20.901Z,0.58
2018-02-19T07:41:20.927Z,0.6
2018-02-19T07:42:20.908Z,0.61
2018-02-19T07:43:20.913Z,0.6
2018-02-19T07:44:21.122Z,0.58
2018-02-19T07:45:20.953Z,0.58
2018-02-19T07:46:20.931Z,0.58
2018-02-19T07:47:20.937Z,0.58
2018-02-19T07:48:20.957Z,0.63
2018-02-19T07:49:20.936Z,0.67
2018-02-19T07:50:20.979Z,0.67
2018-02-19T07:51:20.969Z,0.75
2018-02-19T07:52:20.960Z,0.72
2018-02-19T07:53:20.974Z,0.72
2018-02-19T07:54:20.966Z,0.74
2018-02-19T07:55:21.144Z,0.69
2018-02-19T07:56:21.134Z,0.71
2018-02-19T07:57:21.111Z,0.71
2018-02-19T07:58:21.005Z,0.72
2018-02-19T07:59:21.135Z,0.72
2018-02-19T08:00:21.016Z,0.72
2018-02-19T08:01:20.981Z,0.68
2018-02-19T08:02:20.965Z,0.68
2018-02-19T08:03:20.972Z,0.69
2018-02-19T08:04:20.988Z,0.69
2018-02-19T08:05:21.008Z,0.74
2018-02-19T08:06:20.976Z,0.75
2018-02-19T08:07:20.989Z,0.75
2018-02-19T08:08:20.976Z,0.75
2018-02-19T08:09:21.012Z,0.78
2018-02-19T08:10:21.008Z,0.78
2018-02-19T08:11:21.149Z,0.76
2018-02-19T08:12:21.158Z,0.79
2018-02-19T08:13:20.991Z,0.76
2018-02-19T08:14:21.056Z,0.81
2018-02-19T08:15:21.005Z,0.83
2018-02-19T08:16:20.999Z,0.83
2018-02-19T08:17:21.004Z,0.86
2018-02-19T08:18:21.015Z,0.85
2018-02-19T08:19:21.018Z,0.82
2018-02-19T08:20:21.018Z,0.83
2018-02-19T08:21:21.047Z,0.82
2018-02-19T08:22:21.034Z,0.82
2018-02-19T08:23:21.036Z,0.82
2018-02-19T08:24:21.025Z,0.82
2018-02-19T08:25:21.022Z,0.86
2018-02-19T08:26:21.066Z,0.86
2018-02-19T08:27:21.041Z,0.89
2018-02-19T08:28:21.203Z,0.91
2018-02-19T08:29:21.043Z,0.92
2018-02-19T08:30:21.057Z,0.95
2018-02-19T08:31:21.047Z,0.96
2018-02-19T08:32:21.063Z,0.98
2018-02-19T08:33:21.077Z,0.99
2018-02-19T08:34:21.059Z,1.02
2018-02-19T08:35:21.072Z,1.02
2018-02-19T08:36:21.093Z,1.04
2018-02-19T08:37:21.062Z,1.04
2018-02-19T08:38:21.064Z,1.06
2018-02-19T08:39:21.080Z,1.04
2018-02-19T08:40:21.075Z,1.04
2018-02-19T08:41:21.105Z,1.07
2018-02-19T08:42:21.086Z,1.07
2018-02-19T08:43:21.082Z,1.1
2018-02-19T08:44:21.132Z,1.1
2018-02-19T08:45:21.118Z,1.11
2018-02-19T08:46:21.147Z,1.15
2018-02-19T08:47:21.106Z,1.13
2018-02-19T08:48:21.124Z,1.11
2018-02-19T08:49:21.105Z,1.13
2018-02-19T08:50:21.118Z,1.16
2018-02-19T08:51:21.146Z,1.16
2018-02-19T08:52:21.129Z,1.17
2018-02-19T08:53:21.185Z,1.17
2018-02-19T08:54:21.142Z,1.17
2018-02-19T08:55:21.114Z,1.2
2018-02-19T08:56:21.161Z,1.19
2018-02-19T08:57:21.125Z,1.2
2018-02-19T08:58:21.134Z,1.22
2018-02-19T08:59:21.150Z,1.23
2018-02-19T09:00:21.321Z,1.2
2018-02-19T09:01:21.184Z,1.23
2018-02-19T09:02:21.446Z,1.27
2018-02-19T09:03:21.151Z,1.24
2018-02-19T09:04:21.173Z,1.26
2018-02-19T09:05:21.166Z,1.24
2018-02-19T09:06:21.163Z,1.24
2018-02-19T09:07:21.354Z,1.24
2018-02-19T09:08:21.323Z,1.24
2018-02-19T09:09:21.184Z,1.24
2018-02-19T09:10:21.343Z,1.26
2018-02-19T09:11:21.342Z,1.3
2018-02-19T09:12:21.215Z,1.31
2018-02-19T09:13:21.359Z,1.37
2018-02-19T09:14:21.188Z,1.38
2018-02-19T09:15:21.281Z,1.38
2018-02-19T09:16:21.357Z,1.38
2018-02-19T09:17:21.217Z,1.43
2018-02-19T09:18:21.202Z,1.43
2018-02-19T09:19:21.359Z,1.43
2018-02-19T09:20:21.380Z,1.41
2018-02-19T09:21:21.218Z,1.43
2018-02-19T09:22:21.233Z,1.45
2018-02-19T09:23:21.218Z,1.47
2018-02-19T09:24:21.229Z,1.48
2018-02-19T09:25:21.376Z,1.48
2018-02-19T09:26:21.392Z,1.53
2018-02-19T09:27:21.421Z,1.48
2018-02-19T09:28:21.350Z,1.48
2018-02-19T09:29:21.236Z,1.5
2018-02-19T09:30:21.245Z,1.53
2018-02-19T09:31:21.237Z,1.5
2018-02-19T09:32:21.390Z,1.53
2018-02-19T09:33:21.273Z,1.51
2018-02-19T09:34:21.418Z,1.53
2018-02-19T09:35:21.408Z,1.54
2018-02-19T09:36:21.416Z,1.53
2018-02-19T09:37:21.250Z,1.51
2018-02-19T09:38:21.439Z,1.54
2018-02-19T09:39:21.266Z,1.55
2018-02-19T09:40:21.262Z,1.58
2018-02-19T09:41:21.295Z,1.59
2018-02-19T09:42:21.361Z,1.62
2018-02-19T09:43:21.275Z,1.62
2018-02-19T09:44:21.287Z,1.62
2018-02-19T09:45:21.298Z,1.64
2018-02-19T09:46:21.336Z,1.65
2018-02-19T09:47:21.303Z,1.62
2018-02-19T09:48:21.465Z,1.68
2018-02-19T09:49:21.311Z,1.69
2018-02-19T09:50:21.305Z,1.71
2018-02-19T09:51:21.342Z,1.75
2018-02-19T09:52:21.309Z,1.76
2018-02-19T09:53:21.308Z,1.81
2018-02-19T09:54:21.317Z,1.85
2018-02-19T09:55:21.337Z,1.85
2018-02-19T09:56:21.327Z,1.85
2018-02-19T09:57:21.338Z,1.89
2018-02-19T09:58:21.351Z,1.85
2018-02-19T09:59:21.331Z,1.85
2018-02-19T10:00:21.341Z,1.89
2018-02-19T10:01:21.473Z,1.93
2018-02-19T10:02:21.360Z,1.9
2018-02-19T10:03:21.503Z,1.89
2018-02-19T10:04:21.356Z,1.89
2018-02-19T10:05:21.362Z,1.89
2018-02-19T10:06:21.460Z,1.87
2018-02-19T10:07:21.375Z,1.86
2018-02-19T10:08:21.358Z,1.9
2018-02-19T10:09:21.359Z,1.92
2018-02-19T10:10:21.406Z,1.92
2018-02-19T10:11:21.491Z,1.93
2018-02-19T10:12:21.365Z,1.9
2018-02-19T10:13:21.362Z,1.93
2018-02-19T10:14:21.381Z,1.94
2018-02-19T10:15:21.546Z,1.97
2018-02-19T10:16:21.483Z,1.97
2018-02-19T10:17:21.414Z,2.01
2018-02-19T10:18:21.408Z,2.03
2018-02-19T10:19:21.555Z,2.03
2018-02-19T10:20:21.555Z,2.07
2018-02-19T10:21:21.570Z,2.09
2018-02-19T10:22:21.583Z,2.06
2018-02-19T10:23:21.568Z,2.09
2018-02-19T10:24:21.690Z,2.11
2018-02-19T10:25:21.572Z,2.14
2018-02-19T10:26:21.568Z,2.14
2018-02-19T10:27:21.449Z,2.17
2018-02-19T10:28:21.577Z,2.2
2018-02-19T10:29:21.584Z,2.21
2018-02-19T10:30:21.631Z,2.21
2018-02-19T10:31:21.600Z,2.18
2018-02-19T10:32:21.624Z,2.2
2018-02-19T10:33:21.600Z,2.22
2018-02-19T10:34:21.616Z,2.22
2018-02-19T10:35:21.611Z,2.24
2018-02-19T10:36:21.622Z,2.27
2018-02-19T10:37:21.771Z,2.24
2018-02-19T10:38:21.619Z,2.24
2018-02-19T10:39:21.466Z,2.27
2018-02-19T10:40:21.614Z,2.26
2018-02-19T10:41:21.622Z,2.24
2018-02-19T10:42:21.623Z,2.27
2018-02-19T10:43:21.620Z,2.26
2018-02-19T10:44:21.635Z,2.21
2018-02-19T10:45:21.479Z,2.26
2018-02-19T10:46:21.668Z,2.21
2018-02-19T10:47:21.500Z,2.26
2018-02-19T10:48:21.482Z,2.27
2018-02-19T10:49:21.669Z,2.27
2018-02-19T10:50:21.682Z,2.26
2018-02-19T10:51:21.674Z,2.28
2018-02-19T10:52:21.504Z,2.24
2018-02-19T10:53:21.652Z,2.14
2018-02-19T10:54:21.500Z,2.18
2018-02-19T10:55:21.502Z,2.17
2018-02-19T10:56:21.521Z,2.17
2018-02-19T10:57:21.501Z,2.2
2018-02-19T10:58:21.515Z,2.21
2018-02-19T10:59:21.530Z,2.24
2018-02-19T11:00:21.510Z,2.26
2018-02-19T11:01:21.711Z,2.18
2018-02-19T11:02:21.520Z,2.18
2018-02-19T11:03:21.517Z,2.22
2018-02-19T11:04:21.525Z,2.22
2018-02-19T11:05:21.541Z,2.26
2018-02-19T11:06:21.563Z,2.28
2018-02-19T11:07:21.536Z,2.33
2018-02-19T11:08:21.549Z,2.34
2018-02-19T11:09:21.544Z,2.37
2018-02-19T11:10:22.650Z,2.41
2018-02-19T11:11:21.577Z,2.43
2018-02-19T11:12:21.554Z,2.45
2018-02-19T11:13:21.658Z,2.49
2018-02-19T11:14:21.556Z,2.48
2018-02-19T11:15:21.555Z,2.49
2018-02-19T11:16:21.612Z,2.49
2018-02-19T11:17:21.569Z,2.49
2018-02-19T11:18:21.567Z,2.48
2018-02-19T11:19:21.566Z,2.51
2018-02-19T11:20:21.581Z,2.49
2018-02-19T11:21:21.700Z,2.49
2018-02-19T11:22:21.631Z,2.51
2018-02-19T11:23:21.608Z,2.54
2018-02-19T11:24:21.589Z,2.51
2018-02-19T11:25:21.577Z,2.54
2018-02-19T11:26:21.593Z,2.56
2018-02-19T11:27:21.871Z,2.61
2018-02-19T11:28:21.849Z,2.61
2018-02-19T11:29:21.604Z,2.64
2018-02-19T11:30:21.774Z,2.64
2018-02-19T11:31:21.879Z,2.68
2018-02-19T11:32:21.898Z,2.71
2018-02-19T11:33:21.804Z,2.69
2018-02-19T11:34:21.812Z,2.71
2018-02-19T11:35:21.795Z,2.71
2018-02-19T11:36:21.790Z,2.72
2018-02-19T11:37:21.958Z,2.79
2018-02-19T11:38:21.792Z,2.84
2018-02-19T11:39:28.171Z,2.89
2018-02-19T11:40:21.634Z,2.86
2018-02-19T11:41:21.855Z,2.9
2018-02-19T11:42:21.647Z,2.87
2018-02-19T11:43:21.665Z,2.9
2018-02-19T11:44:21.893Z,2.9
2018-02-19T11:45:21.860Z,2.92
2018-02-19T11:46:21.771Z,2.92
2018-02-19T11:47:21.775Z,2.9
2018-02-19T11:48:21.910Z,2.89
2018-02-19T11:49:21.896Z,2.87
2018-02-19T11:50:21.832Z,2.84
2018-02-19T11:51:21.844Z,2.9
2018-02-19T11:52:21.834Z,2.92
2018-02-19T11:53:21.858Z,2.96
2018-02-19T11:54:21.837Z,2.93
2018-02-19T11:55:21.833Z,2.93
2018-02-19T11:56:21.830Z,2.92
2018-02-19T11:57:21.858Z,2.87
2018-02-19T11:58:22.156Z,2.87
2018-02-19T11:59:21.846Z,2.82
2018-02-19T12:00:21.866Z,2.82
2018-02-19T12:01:21.684Z,2.79
2018-02-19T12:02:21.880Z,2.83
2018-02-19T12:03:21.869Z,2.77
2018-02-19T12:04:21.693Z,2.79
2018-02-19T12:05:21.704Z,2.8
2018-02-19T12:06:21.697Z,2.77
2018-02-19T12:07:21.717Z,2.64
2018-02-19T12:08:21.720Z,2.52
2018-02-19T12:09:21.774Z,2.51
2018-02-19T12:10:21.734Z,2.55
2018-02-19T12:11:21.743Z,2.58
2018-02-19T12:12:21.813Z,2.58
2018-02-19T12:13:21.744Z,2.56
2018-02-19T12:14:21.751Z,2.55
2018-02-19T12:15:21.754Z,2.56
2018-02-19T12:16:21.741Z,2.58
2018-02-19T12:17:21.746Z,2.58
2018-02-19T12:18:21.996Z,2.62
2018-02-19T12:19:21.743Z,2.62
2018-02-19T12:20:21.758Z,2.64
2018-02-19T12:21:21.748Z,2.59
2018-02-19T12:22:21.765Z,2.59
2018-02-19T12:23:21.791Z,2.56
2018-02-19T12:24:21.760Z,2.45
2018-02-19T12:25:21.761Z,2.41
2018-02-19T12:26:21.866Z,2.41
2018-02-19T12:27:21.761Z,2.45
2018-02-19T12:28:21.783Z,2.47
2018-02-19T12:29:21.761Z,2.48
2018-02-19T12:30:21.755Z,2.47
2018-02-19T12:31:21.763Z,2.48
2018-02-19T12:32:21.762Z,2.44
2018-02-19T12:33:21.792Z,2.4
2018-02-19T12:34:21.807Z,2.4
2018-02-19T12:35:21.937Z,2.41
2018-02-19T12:36:21.938Z,2.51
2018-02-19T12:37:21.767Z,2.48
2018-02-19T12:38:21.795Z,2.52
2018-02-19T12:39:21.807Z,2.56
2018-02-19T12:40:21.784Z,2.61
2018-02-19T12:41:21.947Z,2.62
2018-02-19T12:42:21.960Z,2.62
2018-02-19T12:43:21.968Z,2.65
2018-02-19T12:44:21.967Z,2.71
2018-02-19T12:47:28.055Z,2.52
2018-02-19T12:48:21.969Z,2.55
2018-02-19T12:49:22.071Z,2.55
2018-02-19T12:50:21.832Z,2.61
2018-02-19T12:51:21.973Z,2.64
2018-02-19T12:52:22.023Z,2.68
2018-02-19T12:53:21.813Z,2.69
2018-02-19T12:54:22.012Z,2.69
2018-02-19T12:55:21.816Z,2.75
2018-02-19T12:56:21.836Z,2.76
2018-02-19T12:57:21.996Z,2.76
2018-02-19T12:58:21.983Z,2.76
2018-02-19T12:59:21.988Z,2.75
2018-02-19T13:00:22.004Z,2.77
2018-02-19T13:01:22.054Z,2.8
2018-02-19T13:02:22.011Z,2.89
2018-02-19T13:03:22.060Z,2.86
2018-02-19T13:04:22.034Z,2.84
2018-02-19T13:05:22.013Z,2.84
2018-02-19T13:06:21.930Z,2.8
2018-02-19T13:07:22.017Z,2.82
2018-02-19T13:08:22.027Z,2.82
2018-02-19T13:09:22.064Z,2.82
2018-02-19T13:10:21.880Z,2.76
2018-02-19T13:11:22.043Z,2.76
2018-02-19T13:12:22.038Z,2.75
2018-02-19T13:13:22.095Z,2.75
2018-02-19T13:14:22.052Z,2.75
2018-02-19T13:15:21.948Z,2.76
2018-02-19T13:16:22.073Z,2.77
2018-02-19T13:17:21.914Z,2.71
2018-02-19T13:18:22.082Z,2.71
2018-02-19T13:19:21.962Z,2.71
2018-02-19T13:20:21.919Z,2.72
2018-02-19T13:21:21.920Z,2.71
2018-02-19T13:22:21.941Z,2.76